createdAt,value
2017-08-05T00:00:37.712Z,980
2017-08-05T00:01:40.188Z,980
2017-08-05T00:02:42.525Z,980.1
2017-08-05T00:03:44.869Z,980
2017-08-05T00:04:47.179Z,980
2017-08-05T00:05:49.568Z,980.1
2017-08-05T00:06:51.932Z,980.1
2017-08-05T00:07:54.256Z,980
2017-08-05T00:08:56.594Z,980.1
2017-08-05T00:09:58.943Z,980.1
2017-08-05T00:11:01.301Z,980
2017-08-05T00:12:03.699Z,980
2017-08-05T00:13:06.093Z,980.1
2017-08-05T00:14:08.430Z,980.1
2017-08-05T00:15:10.720Z,980.1
2017-08-05T00:16:13.060Z,980.1
2017-08-05T00:17:15.431Z,980.1
2017-08-05T00:18:18.296Z,980
2017-08-05T00:19:20.584Z,980
2017-08-05T00:20:22.893Z,980.1
2017-08-05T00:21:25.199Z,980
2017-08-05T00:22:27.573Z,980
2017-08-05T00:23:29.961Z,980.1
2017-08-05T00:24:32.396Z,980
2017-08-05T00:25:34.742Z,980
2017-08-05T00:26:37.068Z,980
2017-08-05T00:27:39.372Z,979.9
2017-08-05T00:28:41.761Z,980
2017-08-05T00:29:44.064Z,979.9
2017-08-05T00:30:46.485Z,979.9
2017-08-05T00:31:48.890Z,979.9
2017-08-05T00:32:51.291Z,979.8
2017-08-05T00:33:53.653Z,979.8
2017-08-05T00:34:56.011Z,979.8
2017-08-05T00:35:58.325Z,979.8
2017-08-05T00:37:00.657Z,979.7
2017-08-05T00:38:02.990Z,979.8
2017-08-05T00:39:05.316Z,979.7
2017-08-05T00:40:07.722Z,979.7
2017-08-05T00:41:10.053Z,979.8
2017-08-05T00:42:12.440Z,979.7
2017-08-05T00:43:14.941Z,979.8
2017-08-05T00:44:17.283Z,979.8
2017-08-05T00:45:19.688Z,979.8
2017-08-05T00:46:22.064Z,979.8
2017-08-05T00:47:24.380Z,979.7
2017-08-05T00:48:26.708Z,979.8
2017-08-05T00:49:29.092Z,979.8
2017-08-05T00:50:31.472Z,979.8
2017-08-05T00:51:33.777Z,979.9
2017-08-05T00:52:36.110Z,979.9
2017-08-05T00:53:38.528Z,979.9
2017-08-05T00:54:40.869Z,979.9
2017-08-05T00:55:43.148Z,979.9
2017-08-05T00:56:45.508Z,979.9
2017-08-05T00:57:47.892Z,979.9
2017-08-05T00:58:50.251Z,979.9
2017-08-05T00:59:52.556Z,980
2017-08-05T01:00:54.872Z,980
2017-08-05T01:01:57.197Z,980
2017-08-05T01:02:59.507Z,979.9
2017-08-05T01:04:01.866Z,980.1
2017-08-05T01:05:04.187Z,980.1
2017-08-05T01:06:06.488Z,980.1
2017-08-05T01:07:08.802Z,980.1
2017-08-05T01:08:11.131Z,980.1
2017-08-05T01:09:13.430Z,980
2017-08-05T01:10:15.719Z,980.1
2017-08-05T01:11:18.051Z,980
2017-08-05T01:12:20.475Z,980
2017-08-05T01:13:22.843Z,980
2017-08-05T01:14:25.169Z,980
2017-08-05T01:15:27.566Z,980
2017-08-05T01:16:29.902Z,980.1
2017-08-05T01:17:32.218Z,980.1
2017-08-05T01:18:34.563Z,980.1
2017-08-05T01:19:36.891Z,980
2017-08-05T01:20:39.214Z,979.4
2017-08-05T01:21:41.557Z,980
2017-08-05T01:22:43.862Z,979.9
2017-08-05T01:23:46.171Z,980
2017-08-05T01:24:48.518Z,979.9
2017-08-05T01:25:50.910Z,979.9
2017-08-05T01:26:53.240Z,979.9
2017-08-05T01:27:56.233Z,979.9
2017-08-05T01:28:58.608Z,979.9
2017-08-05T01:30:00.971Z,979.9
2017-08-05T01:31:03.352Z,979.9
2017-08-05T01:32:05.659Z,979.9
2017-08-05T01:33:07.994Z,979.9
2017-08-05T01:34:10.482Z,979.9
2017-08-05T01:35:12.835Z,979.8
2017-08-05T01:36:15.165Z,979.9
2017-08-05T01:37:17.532Z,979.8
2017-08-05T01:38:19.884Z,979.8
2017-08-05T01:39:22.265Z,979.9
2017-08-05T01:40:24.572Z,979.9
2017-08-05T01:41:26.902Z,979.9
2017-08-05T01:42:29.297Z,980
2017-08-05T01:43:31.653Z,980
2017-08-05T01:44:33.992Z,980
2017-08-05T01:45:36.306Z,979.9
2017-08-05T01:46:38.645Z,979.9
2017-08-05T01:47:40.939Z,980
2017-08-05T01:48:43.301Z,980
2017-08-05T01:49:45.659Z,980
2017-08-05T01:50:47.987Z,979.9
2017-08-05T01:51:50.349Z,980
2017-08-05T01:52:52.725Z,979.9
2017-08-05T01:53:55.004Z,980
2017-08-05T01:54:57.380Z,979.9
2017-08-05T01:55:59.660Z,980
2017-08-05T01:57:02.198Z,979.9
2017-08-05T01:58:04.545Z,980
2017-08-05T01:59:06.874Z,980
2017-08-05T02:00:09.213Z,980
2017-08-05T02:01:11.539Z,980
2017-08-05T02:02:13.929Z,979.9
2017-08-05T02:03:16.285Z,980
2017-08-05T02:04:18.597Z,979.9
2017-08-05T02:05:21.078Z,979.9
2017-08-05T02:06:23.424Z,979.9
2017-08-05T02:07:25.746Z,979.9
2017-08-05T02:08:28.299Z,979.9
2017-08-05T02:09:30.629Z,979.9
2017-08-05T02:10:33.043Z,979.9
2017-08-05T02:11:35.405Z,979.9
2017-08-05T02:12:37.701Z,979.9
2017-08-05T02:13:40.054Z,979.8
2017-08-05T02:14:42.385Z,979.8
2017-08-05T02:15:44.696Z,979.8
2017-08-05T02:16:47.002Z,979.9
2017-08-05T02:17:49.298Z,979.8
2017-08-05T02:18:51.635Z,979.9
2017-08-05T02:19:54.265Z,979.9
2017-08-05T02:20:56.647Z,979.9
2017-08-05T02:21:59.103Z,980
2017-08-05T02:23:01.434Z,979.9
2017-08-05T02:24:03.760Z,979.9
2017-08-05T02:25:06.096Z,979.9
2017-08-05T02:26:08.467Z,979.9
2017-08-05T02:27:10.841Z,979.9
2017-08-05T02:28:13.177Z,979.8
2017-08-05T02:29:15.497Z,979.8
2017-08-05T02:30:17.804Z,979.9
2017-08-05T02:31:20.241Z,979.9
2017-08-05T02:32:22.610Z,979.9
2017-08-05T02:33:24.990Z,979.9
2017-08-05T02:34:27.278Z,979.9
2017-08-05T02:35:29.584Z,979.4
2017-08-05T02:36:32.328Z,980
2017-08-05T02:37:34.660Z,980
2017-08-05T02:38:36.982Z,980
2017-08-05T02:39:39.300Z,980
2017-08-05T02:40:41.895Z,980
2017-08-05T02:41:44.424Z,980
2017-08-05T02:42:46.734Z,980
2017-08-05T02:43:49.075Z,980
2017-08-05T02:44:51.417Z,980.1
2017-08-05T02:45:53.774Z,980.1
2017-08-05T02:46:56.225Z,980.1
2017-08-05T02:47:58.540Z,980
2017-08-05T02:49:00.881Z,980
2017-08-05T02:50:03.196Z,980
2017-08-05T02:51:05.506Z,980
2017-08-05T02:52:07.961Z,980
2017-08-05T02:53:10.304Z,980
2017-08-05T02:54:12.713Z,980
2017-08-05T02:55:15.009Z,979.9
2017-08-05T02:56:17.431Z,979.9
2017-08-05T02:57:19.870Z,979.9
2017-08-05T02:58:31.209Z,979.9
2017-08-05T02:59:33.508Z,979.9
2017-08-05T03:00:35.841Z,980
2017-08-05T03:01:38.215Z,980
2017-08-05T03:02:40.612Z,980
2017-08-05T03:03:42.956Z,980
2017-08-05T03:04:45.255Z,980
2017-08-05T03:05:47.562Z,980
2017-08-05T03:06:49.870Z,980
2017-08-05T03:07:52.277Z,980
2017-08-05T03:08:54.601Z,980
2017-08-05T03:09:56.927Z,980.1
2017-08-05T03:10:59.270Z,980
2017-08-05T03:12:01.665Z,979.4
2017-08-05T03:13:04.139Z,980
2017-08-05T03:14:06.476Z,980.1
2017-08-05T03:15:08.924Z,980
2017-08-05T03:16:11.305Z,980
2017-08-05T03:17:13.638Z,980
2017-08-05T03:18:15.968Z,980
2017-08-05T03:19:18.302Z,980
2017-08-05T03:20:20.638Z,979.9
2017-08-05T03:21:22.955Z,980
2017-08-05T03:22:25.305Z,979.9
2017-08-05T03:23:27.755Z,979.4
2017-08-05T03:24:30.072Z,980
2017-08-05T03:25:32.441Z,980
2017-08-05T03:26:34.784Z,979.9
2017-08-05T03:27:37.150Z,980
2017-08-05T03:28:39.783Z,980
2017-08-05T03:29:42.220Z,980
2017-08-05T03:30:44.642Z,979.9
2017-08-05T03:31:47.018Z,980
2017-08-05T03:32:49.366Z,979.9
2017-08-05T03:33:51.797Z,979.9
2017-08-05T03:34:54.140Z,979.8
2017-08-05T03:35:56.491Z,979.8
2017-08-05T03:36:58.782Z,979.8
2017-08-05T03:38:01.893Z,979.8
2017-08-05T03:39:04.224Z,979.9
2017-08-05T03:40:06.551Z,979.8
2017-08-05T03:41:08.850Z,979.8
2017-08-05T03:42:11.208Z,979.9
2017-08-05T03:43:13.562Z,979.8
2017-08-05T03:44:15.925Z,979.9
2017-08-05T03:45:18.280Z,979.8
2017-08-05T03:46:20.631Z,979.8
2017-08-05T03:47:22.938Z,979.8
2017-08-05T03:48:25.243Z,979.8
2017-08-05T03:49:27.560Z,979.8
2017-08-05T03:50:30.151Z,979.8
2017-08-05T03:51:32.572Z,979.8
2017-08-05T03:52:34.968Z,979.3
2017-08-05T03:53:37.325Z,979.8
2017-08-05T03:54:39.650Z,979.8
2017-08-05T03:55:42.053Z,979.8
2017-08-05T03:56:44.372Z,979.9
2017-08-05T03:57:46.691Z,979.9
2017-08-05T03:58:49.032Z,979.9
2017-08-05T03:59:51.415Z,979.9
2017-08-05T04:00:53.758Z,979.9
2017-08-05T04:01:56.185Z,979.9
2017-08-05T04:02:58.513Z,980
2017-08-05T04:04:00.896Z,979.9
2017-08-05T04:05:03.297Z,980
2017-08-05T04:06:05.620Z,980
2017-08-05T04:07:07.934Z,980
2017-08-05T04:08:10.256Z,980
2017-08-05T04:09:12.610Z,980
2017-08-05T04:10:14.948Z,980
2017-08-05T04:11:17.306Z,979.9
2017-08-05T04:12:19.676Z,980
2017-08-05T04:13:22.110Z,980
2017-08-05T04:14:24.456Z,980
2017-08-05T04:15:26.825Z,979.9
2017-08-05T04:16:29.276Z,979.9
2017-08-05T04:17:31.656Z,979.9
2017-08-05T04:18:34.032Z,979.9
2017-08-05T04:19:36.368Z,980
2017-08-05T04:20:38.739Z,980
2017-08-05T04:21:41.056Z,979.9
2017-08-05T04:22:43.391Z,979.9
2017-08-05T04:23:45.726Z,979.9
2017-08-05T04:24:48.605Z,980
2017-08-05T04:25:51.001Z,979.4
2017-08-05T04:26:53.337Z,980
2017-08-05T04:27:55.721Z,980
2017-08-05T04:28:58.061Z,979.9
2017-08-05T04:30:00.407Z,980
2017-08-05T04:31:02.758Z,979.9
2017-08-05T04:32:05.324Z,980
2017-08-05T04:33:07.702Z,980.1
2017-08-05T04:34:10.233Z,980.1
2017-08-05T04:35:12.919Z,980.1
2017-08-05T04:36:15.254Z,980.1
2017-08-05T04:37:17.631Z,980.1
2017-08-05T04:38:19.947Z,980.1
2017-08-05T04:39:22.359Z,980.1
2017-08-05T04:40:24.711Z,980.1
2017-08-05T04:41:27.081Z,980.1
2017-08-05T04:42:29.462Z,980.2
2017-08-05T04:43:31.850Z,980.2
2017-08-05T04:44:34.195Z,980.2
2017-08-05T04:45:36.531Z,980.2
2017-08-05T04:46:38.871Z,980.2
2017-08-05T04:47:41.264Z,980.2
2017-08-05T04:48:43.591Z,980.1
2017-08-05T04:49:45.895Z,980.2
2017-08-05T04:50:48.284Z,980.2
2017-08-05T04:51:50.697Z,980.1
2017-08-05T04:52:53.007Z,980.1
2017-08-05T04:53:55.333Z,980.1
2017-08-05T04:54:57.665Z,980.1
2017-08-05T04:56:00.006Z,980.1
2017-08-05T04:57:02.395Z,980.1
2017-08-05T04:58:04.785Z,980.1
2017-08-05T04:59:07.184Z,980.1
2017-08-05T05:00:09.575Z,980.2
2017-08-05T05:01:12.368Z,980
2017-08-05T05:02:14.731Z,980.1
2017-08-05T05:03:17.090Z,980.1
2017-08-05T05:04:19.431Z,980.1
2017-08-05T05:05:21.829Z,980
2017-08-05T05:06:24.189Z,980
2017-08-05T05:07:26.553Z,979.9
2017-08-05T05:08:30.415Z,979.9
2017-08-05T05:09:32.793Z,980
2017-08-05T05:10:35.161Z,980
2017-08-05T05:11:37.738Z,980
2017-08-05T05:12:40.143Z,980
2017-08-05T05:13:42.515Z,980
2017-08-05T05:14:44.938Z,980.1
2017-08-05T05:15:47.260Z,980
2017-08-05T05:16:49.585Z,980
2017-08-05T05:17:52.117Z,980
2017-08-05T05:18:54.449Z,980
2017-08-05T05:19:56.738Z,980
2017-08-05T05:20:59.069Z,979.9
2017-08-05T05:22:01.526Z,979.9
2017-08-05T05:23:03.869Z,979.8
2017-08-05T05:24:06.219Z,979.3
2017-08-05T05:25:08.585Z,979.8
2017-08-05T05:26:10.998Z,979.7
2017-08-05T05:27:13.342Z,979.9
2017-08-05T05:28:15.942Z,979.9
2017-08-05T05:29:18.350Z,979.9
2017-08-05T05:30:20.678Z,979.9
2017-08-05T05:31:23.012Z,979.8
2017-08-05T05:32:25.357Z,979.9
2017-08-05T05:33:27.681Z,979.8
2017-08-05T05:34:30.028Z,979.9
2017-08-05T05:35:32.416Z,979.8
2017-08-05T05:36:34.801Z,979.8
2017-08-05T05:37:37.164Z,979.8
2017-08-05T05:38:39.535Z,979.8
2017-08-05T05:39:41.969Z,979.8
2017-08-05T05:40:44.333Z,979.8
2017-08-05T05:41:46.700Z,979.8
2017-08-05T05:42:49.115Z,979.7
2017-08-05T05:43:51.546Z,979.3
2017-08-05T05:44:53.886Z,979.8
2017-08-05T05:45:56.238Z,979.8
2017-08-05T05:46:58.623Z,979.8
2017-08-05T05:48:01.028Z,979.8
2017-08-05T05:49:03.368Z,979.8
2017-08-05T05:50:05.751Z,979.8
2017-08-05T05:51:08.091Z,979.8
2017-08-05T05:52:10.682Z,979.7
2017-08-05T05:53:13.057Z,979.8
2017-08-05T05:54:15.458Z,979.7
2017-08-05T05:55:17.774Z,979.8
2017-08-05T05:56:20.091Z,979.7
2017-08-05T05:57:22.478Z,979.7
2017-08-05T05:58:24.897Z,979.7
2017-08-05T05:59:27.387Z,979.7
2017-08-05T06:00:29.793Z,979.7
2017-08-05T06:01:32.145Z,979.7
2017-08-05T06:02:34.580Z,979.6
2017-08-05T06:03:36.919Z,979.7
2017-08-05T06:04:39.313Z,979.6
2017-08-05T06:05:41.722Z,979.6
2017-08-05T06:06:44.089Z,979.7
2017-08-05T06:07:46.448Z,979.6
2017-08-05T06:08:48.775Z,979.6
2017-08-05T06:09:51.332Z,979.7
2017-08-05T06:10:53.702Z,979.7
2017-08-05T06:11:56.032Z,979.7
2017-08-05T06:12:58.604Z,979.7
2017-08-05T06:14:01.038Z,979.7
2017-08-05T06:15:03.500Z,979.7
2017-08-05T06:16:05.924Z,979.7
2017-08-05T06:17:08.433Z,979.8
2017-08-05T06:18:10.847Z,979.9
2017-08-05T06:19:13.265Z,979.9
2017-08-05T06:20:15.722Z,979.8
2017-08-05T06:21:18.064Z,979.9
2017-08-05T06:22:20.441Z,979.9
2017-08-05T06:23:22.859Z,979.5
2017-08-05T06:24:25.320Z,980
2017-08-05T06:25:27.678Z,980
2017-08-05T06:26:30.018Z,980
2017-08-05T06:27:32.471Z,980
2017-08-05T06:28:34.849Z,980
2017-08-05T06:29:37.172Z,980
2017-08-05T06:30:39.814Z,980
2017-08-05T06:31:42.521Z,979
2017-08-05T06:32:44.889Z,980
2017-08-05T06:33:47.258Z,980
2017-08-05T06:34:49.632Z,980
2017-08-05T06:35:52.041Z,979.8
2017-08-05T06:36:54.448Z,979.9
2017-08-05T06:37:56.863Z,979.8
2017-08-05T06:38:59.251Z,979.7
2017-08-05T06:40:01.686Z,979.6
2017-08-05T06:41:04.076Z,979.6
2017-08-05T06:42:06.418Z,979.6
2017-08-05T06:43:08.872Z,979.6
2017-08-05T06:44:11.384Z,979.6
2017-08-05T06:46:25.071Z,979.6
2017-08-05T06:47:27.478Z,979.6
2017-08-05T06:48:29.895Z,979.7
2017-08-05T06:49:32.269Z,979.6
2017-08-05T06:50:34.625Z,979.6
2017-08-05T06:51:37.059Z,979.5
2017-08-05T06:52:40.434Z,979.6
2017-08-05T06:53:43.122Z,979.6
2017-08-05T06:54:45.663Z,979.5
2017-08-05T06:55:47.996Z,979.4
2017-08-05T06:56:50.376Z,979.5
2017-08-05T06:57:52.981Z,979.5
2017-08-05T06:58:55.431Z,979.6
2017-08-05T06:59:57.735Z,979.6
2017-08-05T07:01:00.088Z,979.6
2017-08-05T07:02:02.832Z,979.6
2017-08-05T07:03:05.194Z,979.5
2017-08-05T07:04:07.584Z,979.4
2017-08-05T07:05:10.001Z,979.3
2017-08-05T07:06:12.413Z,979.3
2017-08-05T07:07:14.832Z,979.3
2017-08-05T07:08:17.197Z,979.3
2017-08-05T07:09:19.544Z,979.3
2017-08-05T07:10:21.930Z,979.3
2017-08-05T07:11:24.272Z,979.3
2017-08-05T07:12:26.650Z,978.8
2017-08-05T07:13:29.021Z,979.2
2017-08-05T07:14:31.437Z,979.2
2017-08-05T07:15:33.775Z,979.2
2017-08-05T07:16:36.125Z,979.3
2017-08-05T07:17:38.524Z,979.3
2017-08-05T07:18:40.857Z,979.2
2017-08-05T07:19:43.941Z,979.2
2017-08-05T07:20:46.295Z,979.2
2017-08-05T07:21:48.631Z,979.2
2017-08-05T07:22:51.052Z,979.2
2017-08-05T07:23:53.465Z,979.2
2017-08-05T07:24:55.912Z,979.2
2017-08-05T07:25:58.442Z,979.2
2017-08-05T07:27:00.885Z,979.2
2017-08-05T07:28:03.347Z,979.2
2017-08-05T07:29:05.779Z,979.3
2017-08-05T07:30:08.280Z,979.2
2017-08-05T07:31:10.672Z,978.8
2017-08-05T07:32:13.048Z,979.1
2017-08-05T07:33:15.441Z,979.2
2017-08-05T07:34:17.854Z,979.1
2017-08-05T07:35:20.260Z,979.2
2017-08-05T07:36:22.895Z,979.1
2017-08-05T07:37:25.328Z,979.1
2017-08-05T07:38:27.717Z,979.2
2017-08-05T07:39:30.075Z,979.1
2017-08-05T07:40:32.634Z,979.1
2017-08-05T07:41:35.133Z,979.1
2017-08-05T07:42:37.474Z,979
2017-08-05T07:43:39.916Z,979
2017-08-05T07:44:42.429Z,978.9
2017-08-05T07:45:44.768Z,978.9
2017-08-05T07:46:47.228Z,978.9
2017-08-05T07:47:49.702Z,978.9
2017-08-05T07:48:52.433Z,978.4
2017-08-05T07:49:54.824Z,978.9
2017-08-05T07:50:57.234Z,978.9
2017-08-05T07:51:59.772Z,979.1
2017-08-05T07:53:02.236Z,978.5
2017-08-05T07:54:04.613Z,978.5
2017-08-05T07:55:07.089Z,979
2017-08-05T07:56:09.538Z,979
2017-08-05T07:57:12.007Z,978.5
2017-08-05T07:58:14.436Z,979
2017-08-05T07:59:16.825Z,979
2017-08-05T08:00:19.213Z,979
2017-08-05T08:01:21.821Z,978.9
2017-08-05T08:02:24.179Z,978.9
2017-08-05T08:03:26.599Z,979
2017-08-05T08:04:29.039Z,979
2017-08-05T08:05:31.485Z,979
2017-08-05T08:06:33.872Z,978.9
2017-08-05T08:07:36.247Z,979
2017-08-05T08:08:38.679Z,979
2017-08-05T08:09:41.059Z,979
2017-08-05T08:10:43.548Z,979.1
2017-08-05T08:11:46.019Z,979
2017-08-05T08:12:48.420Z,979
2017-08-05T08:13:50.831Z,978.9
2017-08-05T08:14:53.324Z,979
2017-08-05T08:15:55.829Z,978.9
2017-08-05T08:16:58.340Z,979
2017-08-05T08:18:00.784Z,979
2017-08-05T08:19:03.390Z,979
2017-08-05T08:20:06.751Z,979
2017-08-05T08:21:09.269Z,979
2017-08-05T08:22:11.723Z,979
2017-08-05T08:23:14.138Z,979
2017-08-05T08:24:16.531Z,978.8
2017-08-05T08:25:18.956Z,979
2017-08-05T08:26:21.319Z,979
2017-08-05T08:27:25.769Z,978.9
2017-08-05T08:28:28.158Z,979
2017-08-05T08:29:30.659Z,979
2017-08-05T08:30:33.146Z,978.9
2017-08-05T08:31:35.616Z,979
2017-08-05T08:32:37.997Z,978.6
2017-08-05T08:33:40.418Z,979
2017-08-05T08:34:42.954Z,978.9
2017-08-05T08:35:45.568Z,978.9
2017-08-05T08:36:48.073Z,978.9
2017-08-05T08:37:50.470Z,978.9
2017-08-05T08:38:53.137Z,978.9
2017-08-05T08:39:55.508Z,978.9
2017-08-05T08:40:57.923Z,978.9
2017-08-05T08:42:00.287Z,978.8
2017-08-05T08:43:02.714Z,978.9
2017-08-05T08:44:05.088Z,978.8
2017-08-05T08:45:07.457Z,978.8
2017-08-05T08:46:10.733Z,978.9
2017-08-05T08:47:13.231Z,978.6
2017-08-05T08:48:15.702Z,978.8
2017-08-05T08:49:18.835Z,978.8
2017-08-05T08:50:21.199Z,978.8
2017-08-05T08:51:23.699Z,978.8
2017-08-05T08:52:26.163Z,978.8
2017-08-05T08:53:28.602Z,978.8
2017-08-05T08:54:31.007Z,978.8
2017-08-05T08:55:33.504Z,978.8
2017-08-05T08:56:36.025Z,978.8
2017-08-05T08:57:38.494Z,978.7
2017-08-05T08:58:40.932Z,978.6
2017-08-05T08:59:43.413Z,978.4
2017-08-05T09:00:45.931Z,978.8
2017-08-05T09:01:48.436Z,978.7
2017-08-05T09:02:52.689Z,978.8
2017-08-05T09:03:55.204Z,978.8
2017-08-05T09:04:57.843Z,978.8
2017-08-05T09:06:00.208Z,978.8
2017-08-05T09:07:02.846Z,978.4
2017-08-05T09:08:05.486Z,978.5
2017-08-05T09:09:08.196Z,978.8
2017-08-05T09:10:10.680Z,978.9
2017-08-05T09:11:13.412Z,978.8
2017-08-05T09:12:15.932Z,978.8
2017-08-05T09:13:18.996Z,978.8
2017-08-05T09:14:21.408Z,978.8
2017-08-05T09:15:23.929Z,978.8
2017-08-05T09:16:26.387Z,978.8
2017-08-05T09:17:28.819Z,978.8
2017-08-05T09:18:31.319Z,978.8
2017-08-05T09:19:33.845Z,978.8
2017-08-05T09:20:36.432Z,978.9
2017-08-05T09:21:38.896Z,978.9
2017-08-05T09:22:41.377Z,978.9
2017-08-05T09:23:43.908Z,978.9
2017-08-05T09:24:46.422Z,978.8
2017-08-05T09:25:48.947Z,978.9
2017-08-05T09:26:51.400Z,978.8
2017-08-05T09:27:53.962Z,978.8
2017-08-05T09:28:56.392Z,978.8
2017-08-05T09:29:58.785Z,978.8
2017-08-05T09:31:01.281Z,978.2
2017-08-05T09:32:03.698Z,978.7
2017-08-05T09:33:06.339Z,978.7
2017-08-05T09:34:09.072Z,978.6
2017-08-05T09:35:11.445Z,978.6
2017-08-05T09:36:13.943Z,978.6
2017-08-05T09:37:17.021Z,978.6
2017-08-05T09:38:19.422Z,978.6
2017-08-05T09:39:21.885Z,978.6
2017-08-05T09:40:24.366Z,978.6
2017-08-05T09:41:26.760Z,978.6
2017-08-05T09:42:29.235Z,978.6
2017-08-05T09:43:31.980Z,978.7
2017-08-05T09:44:34.542Z,978.7
2017-08-05T09:45:36.933Z,978.7
2017-08-05T09:46:39.346Z,978.7
2017-08-05T09:47:41.810Z,978.5
2017-08-05T09:48:44.365Z,978.4
2017-08-05T09:49:46.838Z,978.4
2017-08-05T09:50:49.291Z,978.4
2017-08-05T09:51:51.753Z,978.3
2017-08-05T09:52:54.253Z,978.3
2017-08-05T09:53:56.669Z,978.5
2017-08-05T09:54:59.064Z,978.5
2017-08-05T09:56:01.476Z,978.4
2017-08-05T09:57:03.941Z,978.4
2017-08-05T09:58:06.448Z,978.4
2017-08-05T09:59:08.822Z,977.8
2017-08-05T10:00:11.300Z,978.4
2017-08-05T10:01:13.773Z,978.4
2017-08-05T10:02:16.360Z,978.4
2017-08-05T10:03:18.794Z,978.4
2017-08-05T10:04:21.246Z,978.4
2017-08-05T10:05:23.655Z,978.5
2017-08-05T10:06:26.204Z,978.5
2017-08-05T10:07:29.393Z,978.5
2017-08-05T10:08:31.874Z,977.9
2017-08-05T10:09:34.662Z,978.4
2017-08-05T10:10:37.116Z,978.4
2017-08-05T10:11:39.978Z,978.4
2017-08-05T10:12:42.517Z,978.4
2017-08-05T10:13:45.044Z,978.5
2017-08-05T10:14:47.471Z,978.4
2017-08-05T10:15:50.021Z,977.9
2017-08-05T10:16:52.551Z,978.4
2017-08-05T10:17:55.075Z,978.3
2017-08-05T10:18:57.480Z,978.3
2017-08-05T10:19:59.893Z,978.3
2017-08-05T10:21:02.351Z,978.3
2017-08-05T10:22:04.894Z,978.2
2017-08-05T10:23:07.306Z,978.3
2017-08-05T10:24:09.732Z,977.9
2017-08-05T10:25:12.273Z,978.5
2017-08-05T10:26:14.721Z,978.5
2017-08-05T10:27:17.275Z,978.7
2017-08-05T10:28:19.756Z,978.8
2017-08-05T10:29:22.182Z,978.9
2017-08-05T10:30:24.608Z,978.6
2017-08-05T10:31:27.043Z,979.1
2017-08-05T10:32:29.525Z,979.1
2017-08-05T10:33:31.938Z,979.1
2017-08-05T10:34:34.298Z,979.1
2017-08-05T10:35:36.840Z,979.2
2017-08-05T10:36:39.301Z,979.2
2017-08-05T10:37:48.328Z,978.7
2017-08-05T10:38:50.800Z,979.1
2017-08-05T10:39:53.257Z,979.1
2017-08-05T10:40:55.715Z,979
2017-08-05T10:41:58.102Z,978.9
2017-08-05T10:43:00.598Z,978.9
2017-08-05T10:44:03.150Z,978.9
2017-08-05T10:45:05.608Z,978.9
2017-08-05T10:46:08.277Z,979
2017-08-05T10:47:10.705Z,979
2017-08-05T10:48:13.181Z,978.9
2017-08-05T10:49:15.762Z,979
2017-08-05T10:50:18.164Z,979
2017-08-05T10:51:20.513Z,979.1
2017-08-05T10:52:22.908Z,978.6
2017-08-05T10:53:25.865Z,979.1
2017-08-05T10:54:28.440Z,979.1
2017-08-05T10:55:30.817Z,979.1
2017-08-05T10:56:33.331Z,979
2017-08-05T10:57:35.816Z,978.9
2017-08-05T10:58:38.340Z,978.9
2017-08-05T10:59:40.863Z,978.9
2017-08-05T11:00:43.310Z,978.9
2017-08-05T11:01:45.810Z,978.9
2017-08-05T11:02:48.264Z,978.9
2017-08-05T11:03:50.723Z,978.9
2017-08-05T11:04:53.212Z,978.9
2017-08-05T11:05:55.734Z,978.9
2017-08-05T11:08:10.182Z,979
2017-08-05T11:09:12.565Z,978.4
2017-08-05T11:10:15.025Z,979
2017-08-05T11:11:17.522Z,978.3
2017-08-05T11:12:20.627Z,979
2017-08-05T11:13:23.092Z,979
2017-08-05T11:14:25.556Z,979
2017-08-05T11:15:27.994Z,978.9
2017-08-05T11:16:30.449Z,978.9
2017-08-05T11:17:32.841Z,978.9
2017-08-05T11:18:35.346Z,978.8
2017-08-05T11:19:37.764Z,978.9
2017-08-05T11:20:40.161Z,978.9
2017-08-05T11:21:42.549Z,979
2017-08-05T11:22:44.925Z,979
2017-08-05T11:23:47.397Z,979
2017-08-05T11:24:49.745Z,978.9
2017-08-05T11:25:52.162Z,978.7
2017-08-05T11:26:54.519Z,979
2017-08-05T11:27:57.045Z,979
2017-08-05T11:28:59.440Z,978.9
2017-08-05T11:30:01.984Z,978.8
2017-08-05T11:31:04.553Z,978.7
2017-08-05T11:32:07.158Z,978.8
2017-08-05T11:33:09.584Z,978.8
2017-08-05T11:34:12.076Z,978.9
2017-08-05T11:35:14.503Z,978.9
2017-08-05T11:36:17.056Z,978.8
2017-08-05T11:37:19.620Z,978.9
2017-08-05T11:38:22.023Z,978.8
2017-08-05T11:39:24.532Z,978.8
2017-08-05T11:40:27.069Z,978.8
2017-08-05T11:41:29.488Z,978.9
2017-08-05T11:42:31.864Z,978.9
2017-08-05T11:43:34.254Z,978.8
2017-08-05T11:44:36.714Z,978.8
2017-08-05T11:45:39.125Z,978.8
2017-08-05T11:46:41.642Z,978.8
2017-08-05T11:47:44.059Z,978.9
2017-08-05T11:48:46.562Z,978.8
2017-08-05T11:49:49.000Z,978.3
2017-08-05T11:50:51.392Z,978.8
2017-08-05T11:51:53.862Z,978.7
2017-08-05T11:52:56.294Z,978.7
2017-08-05T11:53:59.116Z,978.7
2017-08-05T11:55:01.530Z,978.6
2017-08-05T11:56:04.054Z,978.6
2017-08-05T11:57:06.596Z,978.7
2017-08-05T11:58:08.982Z,978.7
2017-08-05T11:59:11.469Z,978.7
2017-08-05T12:00:13.969Z,978.7
2017-08-05T12:01:16.404Z,978.8
2017-08-05T12:02:18.885Z,978.8
2017-08-05T12:03:21.304Z,978.7
2017-08-05T12:04:23.838Z,978.7
2017-08-05T12:05:26.282Z,978.7
2017-08-05T12:06:28.834Z,978.7
2017-08-05T12:07:31.248Z,978.7
2017-08-05T12:08:33.681Z,978.7
2017-08-05T12:09:36.183Z,978.8
2017-08-05T12:10:39.351Z,978.2
2017-08-05T12:11:41.750Z,978.3
2017-08-05T12:12:44.132Z,978.7
2017-08-05T12:13:46.688Z,978.7
2017-08-05T12:14:50.468Z,978.7
2017-08-05T12:15:52.898Z,978.7
2017-08-05T12:16:55.400Z,978.6
2017-08-05T12:17:57.895Z,978.6
2017-08-05T12:19:00.446Z,978.7
2017-08-05T12:20:03.006Z,978.6
2017-08-05T12:21:05.503Z,978.6
2017-08-05T12:22:08.057Z,978.6
2017-08-05T12:23:10.535Z,978.6
2017-08-05T12:24:12.956Z,978.6
2017-08-05T12:25:15.393Z,978.6
2017-08-05T12:26:17.821Z,978.7
2017-08-05T12:27:20.289Z,978.7
2017-08-05T12:28:22.801Z,978.7
2017-08-05T12:29:25.278Z,978.8
2017-08-05T12:30:27.800Z,978.7
2017-08-05T12:31:30.297Z,978.8
2017-08-05T12:32:32.710Z,978.7
2017-08-05T12:33:35.768Z,978.8
2017-08-05T12:34:38.307Z,978.2
2017-08-05T12:35:40.757Z,978.8
2017-08-05T12:36:49.150Z,978.8
2017-08-05T12:37:51.709Z,978.8
2017-08-05T12:38:54.132Z,978.8
2017-08-05T12:39:56.687Z,978.8
2017-08-05T12:40:59.561Z,978.3
2017-08-05T12:42:02.178Z,978.8
2017-08-05T12:43:06.514Z,978.8
2017-08-05T12:44:09.077Z,978.3
2017-08-05T12:45:19.855Z,978.8
2017-08-05T12:46:22.309Z,978.9
2017-08-05T12:47:24.707Z,978.8
2017-08-05T12:48:27.305Z,978.8
2017-08-05T12:49:29.808Z,978.4
2017-08-05T12:50:32.330Z,978.8
2017-08-05T12:51:34.742Z,978.8
2017-08-05T12:52:37.343Z,978.8
2017-08-05T12:53:39.795Z,978.8
2017-08-05T12:54:42.818Z,978.8
2017-08-05T12:55:45.320Z,978.7
2017-08-05T12:56:47.778Z,978.8
2017-08-05T12:57:50.210Z,978.8
2017-08-05T12:58:52.666Z,978.8
2017-08-05T12:59:55.162Z,978.7
2017-08-05T13:00:57.698Z,978.8
2017-08-05T13:02:00.085Z,978.8
2017-08-05T13:03:02.541Z,978.8
2017-08-05T13:04:04.891Z,978.8
2017-08-05T13:05:07.366Z,978.7
2017-08-05T13:06:09.957Z,978.7
2017-08-05T13:07:12.498Z,978.7
2017-08-05T13:08:14.901Z,978.7
2017-08-05T13:09:17.554Z,978.2
2017-08-05T13:10:20.106Z,978.6
2017-08-05T13:11:22.813Z,978.6
2017-08-05T13:12:25.217Z,978.5
2017-08-05T13:13:27.690Z,978.6
2017-08-05T13:14:30.098Z,978.6
2017-08-05T13:15:32.531Z,978.6
2017-08-05T13:16:34.936Z,978.6
2017-08-05T13:17:37.452Z,978.7
2017-08-05T13:18:39.892Z,978.7
2017-08-05T13:19:42.390Z,978.7
2017-08-05T13:20:44.872Z,978.7
2017-08-05T13:21:47.419Z,978.7
2017-08-05T13:22:49.903Z,978.8
2017-08-05T13:23:52.424Z,978.7
2017-08-05T13:24:54.886Z,978.7
2017-08-05T13:25:57.443Z,978.7
2017-08-05T13:26:59.967Z,978.3
2017-08-05T13:28:02.378Z,978.7
2017-08-05T13:29:04.903Z,978.7
2017-08-05T13:30:07.571Z,978.7
2017-08-05T13:31:10.094Z,978.6
2017-08-05T13:32:12.502Z,978.6
2017-08-05T13:33:15.036Z,978.6
2017-08-05T13:34:17.721Z,978.5
2017-08-05T13:35:20.154Z,978.6
2017-08-05T13:36:22.821Z,978.1
2017-08-05T13:37:25.356Z,978.6
2017-08-05T13:38:28.329Z,978.2